Time;durP1;ratioP1;P1;durP2;ratioP2;P2;SDS_P1;SDS_P2;PMS_P1;PMS_P2;Temp;Humidity;BMP_temperature;BMP_pressure;BME280_temperature;BME280_humidity;BME280_pressure;Samples;Min_cycle;Max_cycle;Signal;HPM_P1;HPM_P2
2023/09/28 00:00:38;;;;;;;0.98;0.73;;;;;;;;;;1021274;29;20114;-25
2023/09/28 00:01:18;;;;;;;0.32;0.32;;;;;;;;;;1021874;29;20055;-25
2023/09/28 00:01:49;;;;;;;0.20;0.20;;;;;;;;;;1022713;29;20466;-25
2023/09/28 00:02:19;;;;;;;4.03;1.90;;;;;;;;;;1021296;29;20031;-24
2023/09/28 00:02:50;;;;;;;3.88;2.30;;;;;;;;;;1022501;29;20031;-25
2023/09/28 00:03:20;;;;;;;0.25;0.25;;;;;;;;;;1022469;29;20122;-25
2023/09/28 00:03:51;;;;;;;1.52;1.42;;;;;;;;;;1021545;29;20024;-25
2023/09/28 00:04:22;;;;;;;1.13;1.08;;;;;;;;;;1022443;29;20023;-25
2023/09/28 00:04:52;;;;;;;0.30;0.30;;;;;;;;;;1022556;29;20031;-25
2023/09/28 00:05:23;;;;;;;3.38;1.08;;;;;;;;;;1022071;29;20155;-25
2023/09/28 00:05:54;;;;;;;1.77;0.55;;;;;;;;;;1022084;29;20034;-25
2023/09/28 00:06:24;;;;;;;1.42;1.33;;;;;;;;;;1021607;29;20035;-25
2023/09/28 00:06:54;;;;;;;0.63;0.63;;;;;;;;;;1021101;29;20038;-25
2023/09/28 00:07:25;;;;;;;2.35;2.15;;;;;;;;;;1021793;29;20046;-25
2023/09/28 00:07:56;;;;;;;1.23;1.13;;;;;;;;;;1021750;29;20451;-25
2023/09/28 00:08:26;;;;;;;0.40;0.25;;;;;;;;;;1022355;29;20099;-25
2023/09/28 00:08:56;;;;;;;0.82;0.82;;;;;;;;;;1022457;29;20543;-25
2023/09/28 00:09:27;;;;;;;0.30;0.30;;;;;;;;;;1022543;29;20385;-24
2023/09/28 00:09:57;;;;;;;1.38;1.20;;;;;;;;;;1022326;29;20034;-24
2023/09/28 00:10:30;;;;;;;0.57;0.40;;;;;;;;;;1022033;29;20034;-25
2023/09/28 00:11:00;;;;;;;12.75;4.45;;;;;;;;;;1021869;29;20030;-25
2023/09/28 00:11:31;;;;;;;0.20;0.20;;;;;;;;;;1021984;29;20047;-25
2023/09/28 00:12:02;;;;;;;1.15;1.05;;;;;;;;;;1022536;29;20103;-25
2023/09/28 00:12:32;;;;;;;1.17;1.08;;;;;;;;;;1022401;29;20023;-24
2023/09/28 00:13:02;;;;;;;0.47;0.40;;;;;;;;;;1022450;29;20023;-24
2023/09/28 00:13:33;;;;;;;0.95;0.85;;;;;;;;;;1022082;29;20197;-25
2023/09/28 00:14:04;;;;;;;0.93;0.47;;;;;;;;;;1021926;29;20032;-25
2023/09/28 00:14:34;;;;;;;0.15;0.15;;;;;;;;;;1022180;29;20028;-25
2023/09/28 00:15:05;;;;;;;4.45;1.65;;;;;;;;;;1021312;29;20463;-25
2023/09/28 00:15:37;;;;;;;0.35;0.35;;;;;;;;;;1022503;28;20114;-25
2023/09/28 00:16:07;;;;;;;0.57;0.57;;;;;;;;;;1022429;29;20031;-25
2023/09/28 00:16:38;;;;;;;2.72;2.05;;;;;;;;;;1022296;29;20027;-25
2023/09/28 00:17:09;;;;;;;1.27;1.17;;;;;;;;;;1021943;29;20038;-25
2023/09/28 00:17:40;;;;;;;4.07;2.40;;;;;;;;;;1021960;29;20456;-24
2023/09/28 00:18:10;;;;;;;0.43;0.43;;;;;;;;;;1022338;29;20066;-25
2023/09/28 00:18:41;;;;;;;1.45;1.35;;;;;;;;;;1022353;29;20028;-25
2023/09/28 00:19:11;;;;;;;0.25;0.20;;;;;;;;;;1022471;29;20041;-25
2023/09/28 00:19:42;;;;;;;0.88;0.85;;;;;;;;;;1021770;29;20019;-25
2023/09/28 00:20:16;;;;;;;1.17;1.17;;;;;;;;;;1021796;29;20443;-25
2023/09/28 00:20:46;;;;;;;0.17;0.17;;;;;;;;;;1021536;29;20412;-25
2023/09/28 00:21:17;;;;;;;0.85;0.85;;;;;;;;;;1021688;29;20110;-25
2023/09/28 00:21:48;;;;;;;1.15;1.02;;;;;;;;;;1022429;29;20082;-25
2023/09/28 00:22:18;;;;;;;0.47;0.35;;;;;;;;;;1021896;29;20036;-25
2023/09/28 00:22:53;;;;;;;1.13;0.40;;;;;;;;;;1022469;29;20035;-25
2023/09/28 00:23:23;;;;;;;0.80;0.70;;;;;;;;;;1022465;29;20023;-25
2023/09/28 00:23:54;;;;;;;0.35;0.35;;;;;;;;;;1022494;29;20019;-25
2023/09/28 00:24:24;;;;;;;0.95;0.95;;;;;;;;;;1022296;29;20106;-24
2023/09/28 00:24:55;;;;;;;9.93;1.23;;;;;;;;;;1021930;29;20113;-24
2023/09/28 00:25:25;;;;;;;5.47;2.65;;;;;;;;;;1022014;29;20027;-25
2023/09/28 00:25:56;;;;;;;0.28;0.28;;;;;;;;;;1022238;29;20023;-25
2023/09/28 00:26:26;;;;;;;1.55;0.80;;;;;;;;;;1022477;29;20032;-25
2023/09/28 00:26:57;;;;;;;0.40;0.40;;;;;;;;;;1022246;29;20023;-24
2023/09/28 00:27:27;;;;;;;2.05;0.93;;;;;;;;;;1018026;29;20034;-25
2023/09/28 00:27:58;;;;;;;5.18;2.17;;;;;;;;;;1017663;29;20028;-25
2023/09/28 00:28:28;;;;;;;5.30;2.17;;;;;;;;;;1017819;29;20042;-25
2023/09/28 00:28:59;;;;;;;0.63;0.63;;;;;;;;;;1018098;29;20020;-25
2023/09/28 00:29:29;;;;;;;2.80;2.58;;;;;;;;;;1022496;29;20027;-24
2023/09/28 00:30:00;;;;;;;0.90;0.90;;;;;;;;;;1022512;29;21055;-25
2023/09/28 00:30:30;;;;;;;1.50;1.40;;;;;;;;;;1021577;29;20023;-25
2023/09/28 00:31:04;;;;;;;3.63;0.90;;;;;;;;;;1021644;29;20075;-24
2023/09/28 00:31:35;;;;;;;0.28;0.28;;;;;;;;;;1021545;29;20067;-25
2023/09/28 00:32:06;;;;;;;0.20;0.20;;;;;;;;;;1021833;29;20023;-24
2023/09/28 00:32:36;;;;;;;0.40;0.40;;;;;;;;;;1022344;29;20027;-25
2023/09/28 00:33:07;;;;;;;0.82;0.63;;;;;;;;;;1022370;29;20043;-25
2023/09/28 00:33:37;;;;;;;0.22;0.22;;;;;;;;;;1022388;29;20046;-25
2023/09/28 00:34:08;;;;;;;0.30;0.30;;;;;;;;;;1022088;29;20031;-25
2023/09/28 00:34:38;;;;;;;0.35;0.35;;;;;;;;;;1021973;29;20027;-25
2023/09/28 00:35:09;;;;;;;2.45;1.48;;;;;;;;;;1021860;29;20118;-25
2023/09/28 00:35:39;;;;;;;0.55;0.55;;;;;;;;;;1022340;29;20106;-25
2023/09/28 00:36:10;;;;;;;4.57;2.13;;;;;;;;;;1022404;29;20123;-25
2023/09/28 00:36:40;;;;;;;0.52;0.52;;;;;;;;;;1022386;29;20024;-25
2023/09/28 00:37:11;;;;;;;1.85;1.63;;;;;;;;;;1021782;29;20027;-25
2023/09/28 00:37:42;;;;;;;1.92;1.45;;;;;;;;;;1021865;29;20039;-25
2023/09/28 00:38:12;;;;;;;1.23;1.08;;;;;;;;;;1022003;29;20528;-24
2023/09/28 00:38:43;;;;;;;1.05;1.05;;;;;;;;;;1022234;29;20115;-25
2023/09/28 00:39:14;;;;;;;0.22;0.22;;;;;;;;;;1022310;29;20023;-25
2023/09/28 00:39:44;;;;;;;0.30;0.30;;;;;;;;;;1022404;29;20479;-25
2023/09/28 00:40:27;;;;;;;0.20;0.20;;;;;;;;;;1017728;29;20127;-25
2023/09/28 00:40:58;;;;;;;1.25;1.15;;;;;;;;;;1018699;29;20027;-25
2023/09/28 00:41:28;;;;;;;1.08;0.95;;;;;;;;;;1017801;29;20113;-23
2023/09/28 00:41:59;;;;;;;3.30;1.83;;;;;;;;;;1019551;29;20064;-25
2023/09/28 00:42:29;;;;;;;1.88;1.45;;;;;;;;;;1022050;29;20113;-25
2023/09/28 00:43:00;;;;;;;0.75;0.75;;;;;;;;;;1021253;29;20030;-24
2023/09/28 00:43:31;;;;;;;3.90;3.60;;;;;;;;;;1022352;29;20034;-25
2023/09/28 00:44:01;;;;;;;1.90;1.75;;;;;;;;;;1022394;29;20034;-25
2023/09/28 00:44:32;;;;;;;0.32;0.32;;;;;;;;;;1021247;29;20039;-24
2023/09/28 00:45:03;;;;;;;1.13;0.65;;;;;;;;;;1022333;29;20023;-24
2023/09/28 00:45:33;;;;;;;5.30;2.63;;;;;;;;;;1022362;28;20038;-25
2023/09/28 00:46:04;;;;;;;0.63;0.63;;;;;;;;;;1021239;29;20480;-25
2023/09/28 00:46:34;;;;;;;1.58;1.48;;;;;;;;;;1021715;29;20505;-25
2023/09/28 00:47:05;;;;;;;3.95;2.42;;;;;;;;;;1021235;29;20035;-25
2023/09/28 00:47:38;;;;;;;0.75;0.75;;;;;;;;;;1022369;29;20471;-25
2023/09/28 00:48:09;;;;;;;1.08;1.00;;;;;;;;;;1022245;29;20034;-24
2023/09/28 00:48:43;;;;;;;0.75;0.75;;;;;;;;;;1022312;29;20042;-25
2023/09/28 00:49:16;;;;;;;0.10;0.10;;;;;;;;;;1021971;29;20034;-25
2023/09/28 00:49:47;;;;;;;0.63;0.63;;;;;;;;;;1021942;29;20476;-23
2023/09/28 00:50:18;;;;;;;2.47;2.28;;;;;;;;;;1021793;29;20028;-25
2023/09/28 00:50:48;;;;;;;3.30;1.33;;;;;;;;;;1022312;29;20431;-25
2023/09/28 00:51:19;;;;;;;1.65;1.55;;;;;;;;;;1022305;29;20031;-24
2023/09/28 00:51:50;;;;;;;3.83;3.33;;;;;;;;;;1022203;29;20569;-25
2023/09/28 00:52:21;;;;;;;3.70;3.35;;;;;;;;;;1022073;29;20526;-24
2023/09/28 00:52:53;;;;;;;0.40;0.40;;;;;;;;;;1021093;29;20042;-24
2023/09/28 00:53:24;;;;;;;2.08;1.73;;;;;;;;;;1022313;29;20038;-25
2023/09/28 00:53:56;;;;;;;10.02;1.92;;;;;;;;;;1022350;29;20054;-25
2023/09/28 00:54:27;;;;;;;18.83;3.67;;;;;;;;;;1022297;29;20062;-25
2023/09/28 00:54:58;;;;;;;2.45;1.00;;;;;;;;;;1021952;29;20078;-25
2023/09/28 00:55:29;;;;;;;1.75;1.63;;;;;;;;;;1021791;28;20031;-25
2023/09/28 00:56:00;;;;;;;14.65;2.65;;;;;;;;;;1021915;29;20114;-25
2023/09/28 00:56:31;;;;;;;3.50;1.52;;;;;;;;;;1022238;29;20479;-24
2023/09/28 00:57:02;;;;;;;12.75;3.88;;;;;;;;;;1022881;29;20387;-25
2023/09/28 00:57:33;;;;;;;1.05;0.77;;;;;;;;;;1020443;29;20023;-25
2023/09/28 00:58:08;;;;;;;11.40;2.25;;;;;;;;;;1020215;29;20078;-25
2023/09/28 00:58:39;;;;;;;5.95;3.25;;;;;;;;;;1016742;29;20024;-25
2023/09/28 00:59:09;;;;;;;7.25;3.42;;;;;;;;;;1018112;29;20119;-23
2023/09/28 00:59:40;;;;;;;9.57;2.33;;;;;;;;;;1017060;29;20055;-25
2023/09/28 01:01:11;;;;;;;16.00;5.07;;;;;;;;;;1013702;29;20083;-25
2023/09/28 01:01:42;;;;;;;11.25;6.82;;;;;;;;;;1021679;29;20082;-25
2023/09/28 01:02:12;;;;;;;4.18;3.80;;;;;;;;;;1022174;29;20035;-24
2023/09/28 01:02:43;;;;;;;11.23;5.47;;;;;;;;;;1021645;29;20034;-25
2023/09/28 01:03:13;;;;;;;15.95;8.48;;;;;;;;;;1023004;29;20046;-25
2023/09/28 01:03:44;;;;;;;7.70;5.55;;;;;;;;;;1021811;29;20082;-24
2023/09/28 01:04:14;;;;;;;15.57;6.80;;;;;;;;;;1022065;29;20582;-25
2023/09/28 01:04:45;;;;;;;14.25;5.53;;;;;;;;;;1022566;29;20023;-25
2023/09/28 01:05:15;;;;;;;23.48;8.85;;;;;;;;;;1021728;29;20028;-25
2023/09/28 01:05:46;;;;;;;13.25;6.50;;;;;;;;;;1020520;29;20031;-25
2023/09/28 01:06:16;;;;;;;7.50;4.80;;;;;;;;;;1021228;29;20019;-25
2023/09/28 01:06:47;;;;;;;15.85;8.48;;;;;;;;;;1022892;29;20023;-24
2023/09/28 01:07:28;;;;;;;20.05;8.73;;;;;;;;;;1021072;29;20019;-26
2023/09/28 01:08:06;;;;;;;24.02;11.80;;;;;;;;;;1021206;29;20130;-25
2023/09/28 01:08:36;;;;;;;13.73;8.50;;;;;;;;;;1020006;29;20582;-25
2023/09/28 01:09:08;;;;;;;26.58;10.68;;;;;;;;;;1016038;29;20120;-25
2023/09/28 01:09:39;;;;;;;18.85;11.30;;;;;;;;;;1016589;29;20031;-23
2023/09/28 01:10:12;;;;;;;15.85;7.43;;;;;;;;;;1021859;29;20142;-25
2023/09/28 01:10:43;;;;;;;16.67;6.95;;;;;;;;;;1020410;29;20024;-26
2023/09/28 01:11:13;;;;;;;19.38;5.40;;;;;;;;;;1021967;29;20126;-24
2023/09/28 01:11:46;;;;;;;19.13;10.13;;;;;;;;;;1020908;29;20026;-25
2023/09/28 01:12:16;;;;;;;8.45;7.30;;;;;;;;;;1020932;29;20035;-24
2023/09/28 01:12:48;;;;;;;24.08;11.43;;;;;;;;;;1020079;29;20031;-25
2023/09/28 01:13:20;;;;;;;15.35;9.00;;;;;;;;;;1021759;29;20034;-23
2023/09/28 01:13:52;;;;;;;15.40;5.63;;;;;;;;;;1021074;29;20031;-25
2023/09/28 01:14:23;;;;;;;12.18;7.13;;;;;;;;;;1020994;29;20595;-26
2023/09/28 01:14:56;;;;;;;24.35;8.70;;;;;;;;;;1021037;29;20154;-25
2023/09/28 01:15:28;;;;;;;12.45;6.95;;;;;;;;;;1021663;28;20503;-24
2023/09/28 01:15:59;;;;;;;18.98;6.15;;;;;;;;;;1021613;29;20114;-24
2023/09/28 01:16:30;;;;;;;16.40;11.45;;;;;;;;;;1020007;29;20027;-25
2023/09/28 01:17:00;;;;;;;16.13;8.27;;;;;;;;;;1021242;29;20035;-25
2023/09/28 01:17:31;;;;;;;13.85;6.43;;;;;;;;;;1019519;29;20055;-25
2023/09/28 01:18:01;;;;;;;9.27;7.85;;;;;;;;;;1020332;29;20118;-25
2023/09/28 01:18:32;;;;;;;19.02;9.82;;;;;;;;;;1020172;29;20035;-25
2023/09/28 01:19:03;;;;;;;12.02;6.88;;;;;;;;;;1016624;29;20107;-25
2023/09/28 01:19:34;;;;;;;4.25;3.90;;;;;;;;;;1017940;29;20027;-24
2023/09/28 01:20:17;;;;;;;16.83;6.50;;;;;;;;;;1020269;29;20431;-25
2023/09/28 01:20:48;;;;;;;10.63;8.23;;;;;;;;;;1019594;29;20054;-25
2023/09/28 01:21:19;;;;;;;13.43;9.30;;;;;;;;;;1022700;28;20440;-25
2023/09/28 01:21:51;;;;;;;15.98;7.47;;;;;;;;;;1023380;28;20019;-23
2023/09/28 01:22:22;;;;;;;11.27;4.90;;;;;;;;;;1021025;29;20030;-25
2023/09/28 01:22:53;;;;;;;17.63;7.18;;;;;;;;;;1021171;29;20020;-23
2023/09/28 01:23:24;;;;;;;6.97;6.38;;;;;;;;;;1022042;29;20379;-25
2023/09/28 01:23:57;;;;;;;14.15;5.28;;;;;;;;;;1020928;29;20049;-25
2023/09/28 01:24:29;;;;;;;6.68;5.55;;;;;;;;;;1019696;29;20395;-25
2023/09/28 01:24:59;;;;;;;30.85;9.30;;;;;;;;;;1019621;29;20023;-25
2023/09/28 01:25:30;;;;;;;21.67;10.95;;;;;;;;;;1020036;29;20034;-25
2023/09/28 01:26:01;;;;;;;3.47;3.22;;;;;;;;;;1020627;29;20034;-25
2023/09/28 01:26:34;;;;;;;6.78;4.53;;;;;;;;;;1021161;29;20026;-24
2023/09/28 01:27:06;;;;;;;8.82;6.93;;;;;;;;;;1020414;29;20081;-25
2023/09/28 01:27:37;;;;;;;7.63;6.97;;;;;;;;;;1021175;29;20034;-25
2023/09/28 01:28:07;;;;;;;10.32;7.20;;;;;;;;;;1020591;29;20054;-22
2023/09/28 01:28:38;;;;;;;5.22;4.70;;;;;;;;;;1021537;29;20035;-24
2023/09/28 01:29:10;;;;;;;6.95;4.95;;;;;;;;;;1021426;29;20033;-25
2023/09/28 01:29:40;;;;;;;5.90;5.43;;;;;;;;;;1019443;29;20102;-24
2023/09/28 01:30:11;;;;;;;5.85;3.70;;;;;;;;;;1021425;29;20098;-24
2023/09/28 01:30:42;;;;;;;3.67;3.38;;;;;;;;;;1019827;28;20049;-25
2023/09/28 01:31:12;;;;;;;10.45;6.82;;;;;;;;;;1021176;29;20505;-22
2023/09/28 01:31:43;;;;;;;25.65;7.32;;;;;;;;;;1021996;29;20031;-24
2023/09/28 01:32:14;;;;;;;13.80;6.25;;;;;;;;;;1021286;29;20032;-25
2023/09/28 01:32:48;;;;;;;6.22;5.72;;;;;;;;;;1022302;29;20112;-24
2023/09/28 01:33:27;;;;;;;6.23;5.40;;;;;;;;;;1017501;29;20032;-25
2023/09/28 01:33:58;;;;;;;8.77;5.97;;;;;;;;;;1014417;29;20292;-25
2023/09/28 01:34:29;;;;;;;5.88;5.40;;;;;;;;;;1016554;29;20027;-25
2023/09/28 01:35:04;;;;;;;11.70;4.03;;;;;;;;;;1015997;29;20020;-24
2023/09/28 01:35:40;;;;;;;6.82;5.18;;;;;;;;;;1017286;29;20020;-25
2023/09/28 01:36:15;;;;;;;6.28;5.72;;;;;;;;;;1015880;29;20042;-25
2023/09/28 01:36:50;;;;;;;7.22;3.70;;;;;;;;;;1015347;29;20020;-25
2023/09/28 01:37:26;;;;;;;3.60;3.40;;;;;;;;;;1014748;29;20042;-24
2023/09/28 01:38:00;;;;;;;7.32;4.70;;;;;;;;;;1017530;29;20642;-24
2023/09/28 01:38:40;;;;;;;5.82;4.53;;;;;;;;;;1018872;29;20024;-25
2023/09/28 01:39:11;;;;;;;7.65;5.78;;;;;;;;;;1015892;29;20614;-24
2023/09/28 01:39:42;;;;;;;6.55;5.63;;;;;;;;;;1018586;28;20395;-25
2023/09/28 01:40:13;;;;;;;7.30;6.57;;;;;;;;;;1019970;29;20206;-23
2023/09/28 01:40:46;;;;;;;4.10;3.80;;;;;;;;;;1020941;28;20105;-25
2023/09/28 01:41:18;;;;;;;5.70;5.28;;;;;;;;;;1018846;28;20078;-24
2023/09/28 01:41:49;;;;;;;6.35;5.72;;;;;;;;;;1020493;28;20044;-25
2023/09/28 01:42:20;;;;;;;6.90;5.30;;;;;;;;;;1020938;28;20032;-25
2023/09/28 01:42:53;;;;;;;4.72;4.18;;;;;;;;;;1020033;29;20036;-25
2023/09/28 01:43:23;;;;;;;3.55;3.33;;;;;;;;;;1018821;29;20339;-25
2023/09/28 01:43:54;;;;;;;27.23;5.63;;;;;;;;;;1019968;29;20031;-25
2023/09/28 01:44:24;;;;;;;5.25;4.53;;;;;;;;;;1021131;29;20069;-23
2023/09/28 01:44:55;;;;;;;15.10;4.03;;;;;;;;;;1017874;29;20031;-25
2023/09/28 01:45:25;;;;;;;2.90;2.70;;;;;;;;;;1021276;29;20019;-23
2023/09/28 01:45:56;;;;;;;7.68;7.00;;;;;;;;;;1021959;29;20030;-24
2023/09/28 01:46:34;;;;;;;7.18;5.13;;;;;;;;;;1019704;29;20030;-25
2023/09/28 01:47:06;;;;;;;6.93;6.32;;;;;;;;;;1017928;29;20031;-24
2023/09/28 01:47:36;;;;;;;2.83;2.63;;;;;;;;;;1020345;28;20070;-24
2023/09/28 01:48:08;;;;;;;3.47;3.20;;;;;;;;;;1019511;29;20083;-23
2023/09/28 01:48:39;;;;;;;2.70;2.50;;;;;;;;;;1017962;29;20027;-24
2023/09/28 01:49:11;;;;;;;5.03;3.85;;;;;;;;;;1017183;29;20050;-24
2023/09/28 01:49:41;;;;;;;7.35;5.80;;;;;;;;;;1021074;29;20027;-23
2023/09/28 01:50:12;;;;;;;3.38;3.08;;;;;;;;;;1019991;29;20034;-24
2023/09/28 01:50:43;;;;;;;17.27;5.28;;;;;;;;;;1016951;29;20115;-24
2023/09/28 01:51:14;;;;;;;2.85;2.65;;;;;;;;;;1019774;29;20394;-24
2023/09/28 01:51:45;;;;;;;3.33;2.83;;;;;;;;;;1020757;29;20027;-23
2023/09/28 01:52:20;;;;;;;8.88;4.55;;;;;;;;;;1020543;29;20631;-26
2023/09/28 01:52:52;;;;;;;3.10;2.35;;;;;;;;;;1020654;29;20023;-24
2023/09/28 01:53:22;;;;;;;5.85;4.03;;;;;;;;;;1016748;29;20023;-24
2023/09/28 01:53:53;;;;;;;2.45;2.10;;;;;;;;;;1017991;29;20062;-24
2023/09/28 01:54:25;;;;;;;1.67;1.58;;;;;;;;;;1017723;29;20031;-24
2023/09/28 01:54:56;;;;;;;4.68;4.32;;;;;;;;;;1016438;29;20118;-24
2023/09/28 01:55:26;;;;;;;3.83;2.45;;;;;;;;;;1019521;29;20102;-23
2023/09/28 01:55:59;;;;;;;3.40;3.17;;;;;;;;;;1021425;29;20089;-24
2023/09/28 01:56:30;;;;;;;1.70;1.60;;;;;;;;;;1021594;29;20037;-23
2023/09/28 01:57:01;;;;;;;6.22;2.95;;;;;;;;;;1019992;29;20045;-22
2023/09/28 01:57:32;;;;;;;4.55;4.10;;;;;;;;;;1021560;29;20458;-24
2023/09/28 01:58:07;;;;;;;3.47;3.25;;;;;;;;;;1020646;29;20031;-25
2023/09/28 01:58:38;;;;;;;5.28;3.40;;;;;;;;;;1020858;29;20470;-24
2023/09/28 01:59:09;;;;;;;2.80;2.58;;;;;;;;;;1016873;29;20031;-25
2023/09/28 01:59:39;;;;;;;5.13;4.50;;;;;;;;;;1015715;29;20036;-24
2023/09/28 02:00:18;;;;;;;3.50;3.28;;;;;;;;;;1015949;29;20122;-25
2023/09/28 02:00:48;;;;;;;2.40;2.20;;;;;;;;;;1017943;29;20035;-24
2023/09/28 02:01:28;;;;;;;4.00;3.70;;;;;;;;;;1020858;29;20039;-25
2023/09/28 02:02:01;;;;;;;2.63;2.38;;;;;;;;;;1018463;29;20506;-23
2023/09/28 02:02:34;;;;;;;2.00;1.75;;;;;;;;;;1011911;29;20032;-24
2023/09/28 02:03:08;;;;;;;2.75;2.55;;;;;;;;;;1012165;29;20101;-25
2023/09/28 02:03:41;;;;;;;4.82;3.10;;;;;;;;;;1015416;29;20563;-22
2023/09/28 02:04:12;;;;;;;11.15;3.75;;;;;;;;;;1016546;29;20554;-23
2023/09/28 02:04:44;;;;;;;1.73;1.63;;;;;;;;;;1017130;29;20062;-25
2023/09/28 02:05:19;;;;;;;1.45;1.38;;;;;;;;;;1017255;29;20055;-24
2023/09/28 02:05:50;;;;;;;1.58;1.48;;;;;;;;;;1017051;29;20424;-25
2023/09/28 02:06:21;;;;;;;2.58;2.38;;;;;;;;;;1018442;29;20039;-25
2023/09/28 02:06:53;;;;;;;5.05;4.65;;;;;;;;;;1019059;29;20056;-25
2023/09/28 02:07:26;;;;;;;3.08;2.78;;;;;;;;;;1019189;29;20031;-25
2023/09/28 02:07:57;;;;;;;3.97;3.65;;;;;;;;;;1018933;29;20027;-25
2023/09/28 02:08:27;;;;;;;1.10;1.05;;;;;;;;;;1016908;29;20575;-25
2023/09/28 02:08:59;;;;;;;4.68;3.10;;;;;;;;;;1018910;29;20033;-23
2023/09/28 02:09:41;;;;;;;4.88;4.45;;;;;;;;;;1016822;29;20400;-27
2023/09/28 02:10:16;;;;;;;5.97;5.40;;;;;;;;;;1017771;29;20566;-24
2023/09/28 02:10:47;;;;;;;5.47;3.85;;;;;;;;;;1020330;29;20023;-25
2023/09/28 02:11:24;;;;;;;6.35;2.15;;;;;;;;;;1018919;29;20035;-24
2023/09/28 02:11:57;;;;;;;3.08;2.78;;;;;;;;;;1017747;29;20110;-25
2023/09/28 02:12:28;;;;;;;5.03;4.07;;;;;;;;;;1018266;29;20032;-24
2023/09/28 02:12:59;;;;;;;3.95;2.70;;;;;;;;;;1018550;29;20464;-24
2023/09/28 02:13:30;;;;;;;3.20;3.00;;;;;;;;;;1018925;29;20114;-24
2023/09/28 02:14:01;;;;;;;14.50;3.80;;;;;;;;;;1017360;29;20172;-25
2023/09/28 02:14:32;;;;;;;4.50;4.18;;;;;;;;;;1017016;29;20496;-25
2023/09/28 02:15:06;;;;;;;18.88;3.65;;;;;;;;;;1018753;29;20027;-25
2023/09/28 02:15:37;;;;;;;18.75;2.70;;;;;;;;;;1020139;29;20782;-25
2023/09/28 02:16:11;;;;;;;5.25;3.67;;;;;;;;;;1017532;29;20071;-25
2023/09/28 02:16:42;;;;;;;1.08;1.02;;;;;;;;;;1021907;29;20027;-25
2023/09/28 02:17:14;;;;;;;0.93;0.93;;;;;;;;;;1019930;29;20059;-26
2023/09/28 02:17:48;;;;;;;2.60;2.40;;;;;;;;;;1017854;29;20038;-24
2023/09/28 02:18:23;;;;;;;5.97;3.97;;;;;;;;;;1020880;29;20613;-24
2023/09/28 02:18:53;;;;;;;4.05;3.50;;;;;;;;;;1020522;29;20134;-23
2023/09/28 02:19:24;;;;;;;3.53;1.45;;;;;;;;;;1020174;29;20031;-25
2023/09/28 02:19:56;;;;;;;3.33;2.92;;;;;;;;;;1015087;29;20024;-24
2023/09/28 02:20:30;;;;;;;3.47;3.20;;;;;;;;;;1017769;29;20046;-24
2023/09/28 02:21:03;;;;;;;5.35;3.90;;;;;;;;;;1016943;29;20032;-25
2023/09/28 02:21:34;;;;;;;1.65;1.52;;;;;;;;;;1015645;29;20144;-24
2023/09/28 02:22:13;;;;;;;3.03;2.80;;;;;;;;;;1017429;29;20105;-25
2023/09/28 02:22:48;;;;;;;3.92;3.63;;;;;;;;;;1019021;29;20460;-25
2023/09/28 02:23:19;;;;;;;2.50;2.33;;;;;;;;;;1019886;29;20027;-25
2023/09/28 02:23:51;;;;;;;29.05;2.42;;;;;;;;;;1018304;29;20031;-24
2023/09/28 02:24:24;;;;;;;2.83;2.58;;;;;;;;;;1017124;29;20041;-25
2023/09/28 02:24:55;;;;;;;1.00;1.00;;;;;;;;;;1012708;29;20039;-25
2023/09/28 02:25:34;;;;;;;0.85;0.85;;;;;;;;;;1017791;29;20063;-24
2023/09/28 02:26:14;;;;;;;1.88;1.77;;;;;;;;;;1016220;29;20035;-24
2023/09/28 02:26:44;;;;;;;5.30;2.55;;;;;;;;;;1015795;29;20039;-26
2023/09/28 02:27:17;;;;;;;0.90;0.90;;;;;;;;;;1016397;29;20516;-25
2023/09/28 02:27:50;;;;;;;3.20;3.00;;;;;;;;;;1017316;29;20523;-26
2023/09/28 02:28:23;;;;;;;1.95;1.85;;;;;;;;;;1017944;29;20846;-25
2023/09/28 02:28:54;;;;;;;1.02;1.02;;;;;;;;;;1012429;29;20035;-25
2023/09/28 02:29:26;;;;;;;3.78;2.85;;;;;;;;;;1009961;29;20159;-25
2023/09/28 02:29:56;;;;;;;3.38;2.72;;;;;;;;;;1016178;29;20043;-26
2023/09/28 02:30:26;;;;;;;1.45;1.35;;;;;;;;;;1020746;28;20035;-26
2023/09/28 02:31:05;;;;;;;1.90;1.63;;;;;;;;;;1019801;29;20023;-26
2023/09/28 02:31:45;;;;;;;14.38;3.58;;;;;;;;;;1018837;29;20062;-25
2023/09/28 02:32:18;;;;;;;2.42;2.10;;;;;;;;;;1018466;29;20094;-25
2023/09/28 02:32:50;;;;;;;0.75;0.75;;;;;;;;;;1015793;29;20490;-26
2023/09/28 02:33:21;;;;;;;7.95;4.57;;;;;;;;;;1017443;29;20032;-26
2023/09/28 02:33:51;;;;;;;4.45;4.07;;;;;;;;;;1017641;29;20066;-26
2023/09/28 02:34:22;;;;;;;5.03;4.38;;;;;;;;;;1017818;29;20027;-25
2023/09/28 02:34:52;;;;;;;5.25;2.55;;;;;;;;;;1020930;29;20027;-26
2023/09/28 02:35:24;;;;;;;3.30;2.97;;;;;;;;;;1019224;29;20117;-26
2023/09/28 02:35:54;;;;;;;0.85;0.82;;;;;;;;;;1018296;29;20410;-26
2023/09/28 02:36:30;;;;;;;4.57;3.30;;;;;;;;;;1013978;29;20488;-26
2023/09/28 02:37:01;;;;;;;1.48;1.35;;;;;;;;;;1015787;29;20387;-24
2023/09/28 02:37:33;;;;;;;1.70;1.60;;;;;;;;;;1012133;29;20153;-24
2023/09/28 02:38:04;;;;;;;20.95;2.67;;;;;;;;;;1014908;29;20035;-24
2023/09/28 02:38:36;;;;;;;5.88;4.03;;;;;;;;;;1015174;29;20649;-24
2023/09/28 02:39:11;;;;;;;1.70;1.52;;;;;;;;;;1016289;29;20456;-24
2023/09/28 02:39:43;;;;;;;4.32;2.63;;;;;;;;;;1015012;29;20039;-23
2023/09/28 02:40:15;;;;;;;7.60;3.85;;;;;;;;;;1015666;29;20061;-25
2023/09/28 02:40:45;;;;;;;4.65;3.03;;;;;;;;;;1017111;29;20051;-25
2023/09/28 02:41:16;;;;;;;2.13;1.52;;;;;;;;;;1020480;29;20027;-25
2023/09/28 02:41:47;;;;;;;3.53;3.22;;;;;;;;;;1020287;29;20488;-25
2023/09/28 02:42:21;;;;;;;4.30;3.50;;;;;;;;;;1021162;29;20110;-25
2023/09/28 02:42:57;;;;;;;6.25;5.15;;;;;;;;;;1014433;29;20043;-25
2023/09/28 02:43:33;;;;;;;9.20;3.65;;;;;;;;;;1013977;29;20641;-24
2023/09/28 02:44:08;;;;;;;4.40;3.13;;;;;;;;;;1014997;29;20640;-24
2023/09/28 02:44:44;;;;;;;1.85;1.67;;;;;;;;;;1019220;29;20042;-25
2023/09/28 02:45:22;;;;;;;1.83;1.73;;;;;;;;;;1020277;28;20031;-25
2023/09/28 02:45:57;;;;;;;2.80;1.30;;;;;;;;;;1018256;29;20143;-26
2023/09/28 02:46:28;;;;;;;4.43;2.17;;;;;;;;;;1014540;29;20197;-25
2023/09/28 02:47:00;;;;;;;20.83;5.75;;;;;;;;;;1021279;28;20035;-24
2023/09/28 02:47:31;;;;;;;2.72;2.53;;;;;;;;;;1020020;28;20042;-26
2023/09/28 02:48:02;;;;;;;1.95;1.80;;;;;;;;;;1011493;29;20571;-25
2023/09/28 02:48:33;;;;;;;2.53;2.33;;;;;;;;;;1010251;29;20041;-25
2023/09/28 02:49:08;;;;;;;1.83;1.73;;;;;;;;;;1011060;29;20028;-26
2023/09/28 02:49:57;;;;;;;0.93;0.93;;;;;;;;;;1016540;29;20012;-25
2023/09/28 02:51:03;;;;;;;1.02;1.02;;;;;;;;;;1020925;29;20445;-25
2023/09/28 02:52:06;;;;;;;2.92;1.58;;;;;;;;;;1017223;29;20038;-24
2023/09/28 02:52:41;;;;;;;15.32;4.75;;;;;;;;;;1013166;29;20047;-25
2023/09/28 02:53:26;;;;;;;0.65;0.65;;;;;;;;;;1014771;29;20046;-25
2023/09/28 02:53:59;;;;;;;4.22;2.47;;;;;;;;;;1013125;29;20055;-25
2023/09/28 02:54:39;;;;;;;2.63;2.42;;;;;;;;;;1013046;29;20036;-25
2023/09/28 02:55:36;;;;;;;2.15;2.05;;;;;;;;;;1008717;29;20044;-25
2023/09/28 02:56:10;;;;;;;2.38;1.63;;;;;;;;;;1001117;29;20035;-24
2023/09/28 02:56:43;;;;;;;1.65;1.15;;;;;;;;;;996716;29;20101;-25
2023/09/28 02:57:38;;;;;;;1.98;1.88;;;;;;;;;;1000909;29;20026;-24
2023/09/28 02:58:14;;;;;;;2.92;2.58;;;;;;;;;;1000386;29;20073;-24
2023/09/28 02:58:51;;;;;;;3.03;2.83;;;;;;;;;;1005457;29;20053;-25
2023/09/28 02:59:29;;;;;;;2.10;1.98;;;;;;;;;;1004794;29;20573;-25
2023/09/28 03:00:13;;;;;;;2.35;2.15;;;;;;;;;;1005028;29;20036;-25
2023/09/28 03:01:00;;;;;;;0.98;0.98;;;;;;;;;;1002425;29;20046;-25
2023/09/28 03:02:13;;;;;;;4.18;3.78;;;;;;;;;;1006473;29;20037;-25
2023/09/28 03:04:24;;;;;;;3.45;3.13;;;;;;;;;;1008853;29;20032;-25
2023/09/28 03:05:32;;;;;;;2.95;2.00;;;;;;;;;;1006845;29;20268;-25
2023/09/28 03:06:59;;;;;;;4.47;1.10;;;;;;;;;;999456;29;20042;-25
2023/09/28 03:08:12;;;;;;;2.53;1.83;;;;;;;;;;994636;29;20479;-26
2023/09/28 03:09:44;;;;;;;0.95;0.95;;;;;;;;;;980666;30;20182;-25
2023/09/28 03:10:27;;;;;;;15.95;2.95;;;;;;;;;;980014;30;20025;-26
2023/09/28 03:11:08;;;;;;;8.77;3.33;;;;;;;;;;977473;30;20077;-25
2023/09/28 03:11:56;;;;;;;2.05;1.55;;;;;;;;;;979985;30;20023;-25
2023/09/28 03:13:19;;;;;;;5.85;2.92;;;;;;;;;;990782;29;20102;-24
2023/09/28 03:14:54;;;;;;;2.80;2.22;;;;;;;;;;985755;30;20064;-24
2023/09/28 03:15:43;;;;;;;;;;;;;;;;;;987773;29;20410;-26
2023/09/28 03:16:29;;;;;;;5.78;1.80;;;;;;;;;;986876;29;19991;-23
2023/09/28 03:17:15;;;;;;;15.43;7.95;;;;;;;;;;990902;29;20218;-25
2023/09/28 03:18:18;;;;;;;6.53;1.08;;;;;;;;;;980709;30;20127;-25
2023/09/28 03:19:11;;;;;;;3.40;3.17;;;;;;;;;;976954;30;20045;-25
2023/09/28 03:19:58;;;;;;;2.03;0.85;;;;;;;;;;990857;29;20038;-24
2023/09/28 03:20:48;;;;;;;2.65;2.15;;;;;;;;;;989274;29;20055;-24
2023/09/28 03:22:02;;;;;;;3.67;3.38;;;;;;;;;;987165;30;20449;-24
2023/09/28 03:23:06;;;;;;;3.42;2.88;;;;;;;;;;984803;30;20512;-24
2023/09/28 03:23:42;;;;;;;11.70;2.67;;;;;;;;;;985225;30;20039;-25
2023/09/28 03:24:36;;;;;;;3.53;3.28;;;;;;;;;;984067;30;20131;-24
2023/09/28 03:25:17;;;;;;;1.52;1.42;;;;;;;;;;971352;30;20486;-25
2023/09/28 03:26:02;;;;;;;1.80;1.50;;;;;;;;;;973376;30;20069;-25
2023/09/28 03:26:42;;;;;;;1.13;0.95;;;;;;;;;;976334;30;20406;-25
2023/09/28 03:27:39;;;;;;;5.45;1.77;;;;;;;;;;975180;30;20032;-25
2023/09/28 03:28:29;;;;;;;5.10;4.68;;;;;;;;;;976357;30;20474;-25